OIBS  Sirri Island Airport

Add Bookmark

Iran

Status IATA
Operational SXI
Latitude Longitude
25° 54' 32" N 54° 32' 21" E
25.908899 54.539398
Local (DST + 5) UTC (GMT + 4)
Aug 20, 2014 11:18 Aug 20, 2014 06:48
Sunrise-Sunset Local UTC
Begin Civil Twilight 06:01 01:31
Sunrise 06:25 01:55
Sunset 07:24 14:54
End Civil Twilight 07:48 15:18

Current Weather

METAR Observed VFR
OIBS 200600Z 12010KT CAVOK 35/27 Q1007 Wed, Aug 20, 2014 @ 06:00 UTC
(48 Minutes ago)
Visual Flight Rules
Wind Visibility Clouds Conditions
120° at 10 knots (19 kph) 10 km or more
  • Clear skies
  • No significant weather
Temperatures Readings Precipitation
Current Temp 35°C (95°F)
Dewpoint 27°C (81°F)
Heat Index 47°C (116°F)
Humidity 63%
Altimeter 29.73"Hg
Sea Level Pressure 1007mb
Field Elevation 45.93'
None Recorded

Additional weather within a 92.6km radius of OIBS

Map ICAO Location
OIBA 49.4km E (094°)
OIBL 74.8km N (022°)
OIBK 88.3km N (321°)

24 Hour Weather History

Loading
-

24 Hour Weather Graphs

Loading
-

CheckWX.com is intended as a tool to help pilots better visualize weather data. It is not intended as a substitute for an official weather briefing obtained from a Flight Service Station. CheckWX.com does not meet the FAA requirements for an official pre-flight weather briefing. Therefore, it's important that pilots still call and obtain an official FSS pre-flight weather briefing.